sensor_id;sensor_type;location;lat;lon;timestamp;P1;durP1;ratioP1;P2;durP2;ratioP2
64188;SDS011;50493;50.970;10.082;2023-08-31T00:01:33;2.78;;;1.70;;
64188;SDS011;50493;50.970;10.082;2023-08-31T00:03:58;2.22;;;1.50;;
64188;SDS011;50493;50.970;10.082;2023-08-31T00:06:24;2.03;;;1.40;;
64188;SDS011;50493;50.970;10.082;2023-08-31T00:08:51;4.25;;;2.78;;
64188;SDS011;50493;50.970;10.082;2023-08-31T00:11:16;3.17;;;1.80;;
64188;SDS011;50493;50.970;10.082;2023-08-31T00:13:42;3.85;;;2.38;;
64188;SDS011;50493;50.970;10.082;2023-08-31T00:16:07;3.75;;;2.10;;
64188;SDS011;50493;50.970;10.082;2023-08-31T00:18:34;2.97;;;1.80;;
64188;SDS011;50493;50.970;10.082;2023-08-31T00:21:01;3.80;;;1.80;;
64188;SDS011;50493;50.970;10.082;2023-08-31T00:23:26;3.97;;;1.55;;
64188;SDS011;50493;50.970;10.082;2023-08-31T00:25:53;3.78;;;1.80;;
64188;SDS011;50493;50.970;10.082;2023-08-31T00:28:18;2.63;;;1.88;;
64188;SDS011;50493;50.970;10.082;2023-08-31T00:30:44;3.05;;;1.73;;
64188;SDS011;50493;50.970;10.082;2023-08-31T00:33:09;3.08;;;2.10;;
64188;SDS011;50493;50.970;10.082;2023-08-31T00:35:35;3.40;;;2.08;;
64188;SDS011;50493;50.970;10.082;2023-08-31T00:38:00;4.55;;;1.77;;
64188;SDS011;50493;50.970;10.082;2023-08-31T00:40:27;3.38;;;1.88;;
64188;SDS011;50493;50.970;10.082;2023-08-31T00:42:54;2.53;;;1.67;;
64188;SDS011;50493;50.970;10.082;2023-08-31T00:45:20;4.03;;;2.40;;
64188;SDS011;50493;50.970;10.082;2023-08-31T00:47:46;3.03;;;1.95;;
64188;SDS011;50493;50.970;10.082;2023-08-31T00:50:14;4.18;;;2.63;;
64188;SDS011;50493;50.970;10.082;2023-08-31T00:52:40;3.03;;;2.05;;
64188;SDS011;50493;50.970;10.082;2023-08-31T00:55:07;2.80;;;1.80;;
64188;SDS011;50493;50.970;10.082;2023-08-31T00:57:33;4.78;;;3.35;;
64188;SDS011;50493;50.970;10.082;2023-08-31T01:00:01;4.72;;;2.20;;
64188;SDS011;50493;50.970;10.082;2023-08-31T01:02:29;3.05;;;2.03;;
64188;SDS011;50493;50.970;10.082;2023-08-31T01:05:01;3.92;;;2.75;;
64188;SDS011;50493;50.970;10.082;2023-08-31T01:07:31;4.35;;;2.15;;
64188;SDS011;50493;50.970;10.082;2023-08-31T01:10:07;3.95;;;2.47;;
64188;SDS011;50493;50.970;10.082;2023-08-31T01:12:40;3.75;;;2.55;;
64188;SDS011;50493;50.970;10.082;2023-08-31T01:15:13;3.40;;;2.28;;
64188;SDS011;50493;50.970;10.082;2023-08-31T01:17:42;4.72;;;2.50;;
64188;SDS011;50493;50.970;10.082;2023-08-31T01:20:11;7.78;;;3.15;;
64188;SDS011;50493;50.970;10.082;2023-08-31T01:22:43;4.68;;;3.10;;
64188;SDS011;50493;50.970;10.082;2023-08-31T01:25:25;3.55;;;2.15;;
64188;SDS011;50493;50.970;10.082;2023-08-31T01:27:51;4.25;;;2.60;;
64188;SDS011;50493;50.970;10.082;2023-08-31T01:30:17;7.03;;;4.60;;
64188;SDS011;50493;50.970;10.082;2023-08-31T01:32:43;4.70;;;3.10;;
64188;SDS011;50493;50.970;10.082;2023-08-31T01:35:10;4.20;;;2.40;;
64188;SDS011;50493;50.970;10.082;2023-08-31T01:37:39;9.68;;;6.68;;
64188;SDS011;50493;50.970;10.082;2023-08-31T01:40:11;6.13;;;4.22;;
64188;SDS011;50493;50.970;10.082;2023-08-31T01:42:41;10.40;;;7.43;;
64188;SDS011;50493;50.970;10.082;2023-08-31T01:45:08;8.27;;;5.40;;
64188;SDS011;50493;50.970;10.082;2023-08-31T01:47:36;10.23;;;6.10;;
64188;SDS011;50493;50.970;10.082;2023-08-31T01:50:01;4.80;;;3.30;;
64188;SDS011;50493;50.970;10.082;2023-08-31T01:52:27;4.97;;;3.13;;
64188;SDS011;50493;50.970;10.082;2023-08-31T01:54:52;4.57;;;2.95;;
64188;SDS011;50493;50.970;10.082;2023-08-31T01:57:18;4.15;;;2.70;;
64188;SDS011;50493;50.970;10.082;2023-08-31T01:59:45;4.90;;;2.95;;
64188;SDS011;50493;50.970;10.082;2023-08-31T02:02:10;6.07;;;3.20;;
64188;SDS011;50493;50.970;10.082;2023-08-31T02:04:35;3.95;;;2.58;;
64188;SDS011;50493;50.970;10.082;2023-08-31T02:07:01;4.53;;;2.88;;
64188;SDS011;50493;50.970;10.082;2023-08-31T02:09:26;6.03;;;3.60;;
64188;SDS011;50493;50.970;10.082;2023-08-31T02:11:52;5.05;;;3.13;;
64188;SDS011;50493;50.970;10.082;2023-08-31T02:14:17;4.82;;;2.85;;
64188;SDS011;50493;50.970;10.082;2023-08-31T02:16:44;4.93;;;2.88;;
64188;SDS011;50493;50.970;10.082;2023-08-31T02:19:10;8.40;;;5.68;;
64188;SDS011;50493;50.970;10.082;2023-08-31T02:21:35;5.05;;;3.20;;
64188;SDS011;50493;50.970;10.082;2023-08-31T02:24:00;4.07;;;2.75;;
64188;SDS011;50493;50.970;10.082;2023-08-31T02:26:26;9.82;;;6.80;;
64188;SDS011;50493;50.970;10.082;2023-08-31T02:28:51;5.55;;;3.42;;
64188;SDS011;50493;50.970;10.082;2023-08-31T02:31:17;5.75;;;3.05;;
64188;SDS011;50493;50.970;10.082;2023-08-31T02:33:45;4.40;;;2.80;;
64188;SDS011;50493;50.970;10.082;2023-08-31T02:36:10;12.40;;;7.55;;
64188;SDS011;50493;50.970;10.082;2023-08-31T02:38:36;4.65;;;3.20;;
64188;SDS011;50493;50.970;10.082;2023-08-31T02:41:01;5.07;;;3.35;;
64188;SDS011;50493;50.970;10.082;2023-08-31T02:43:27;4.95;;;3.17;;
64188;SDS011;50493;50.970;10.082;2023-08-31T02:45:58;5.13;;;3.25;;
64188;SDS011;50493;50.970;10.082;2023-08-31T02:48:24;6.53;;;3.17;;
64188;SDS011;50493;50.970;10.082;2023-08-31T02:50:51;4.60;;;2.95;;
64188;SDS011;50493;50.970;10.082;2023-08-31T02:53:17;4.30;;;2.92;;
64188;SDS011;50493;50.970;10.082;2023-08-31T02:55:42;5.13;;;3.30;;
64188;SDS011;50493;50.970;10.082;2023-08-31T02:58:07;5.72;;;3.08;;
64188;SDS011;50493;50.970;10.082;2023-08-31T03:00:33;4.53;;;2.90;;
64188;SDS011;50493;50.970;10.082;2023-08-31T03:02:58;5.20;;;3.08;;
64188;SDS011;50493;50.970;10.082;2023-08-31T03:05:24;5.32;;;3.10;;
64188;SDS011;50493;50.970;10.082;2023-08-31T03:07:50;4.35;;;3.20;;
64188;SDS011;50493;50.970;10.082;2023-08-31T03:10:16;4.25;;;2.97;;
64188;SDS011;50493;50.970;10.082;2023-08-31T03:12:41;4.88;;;3.20;;
64188;SDS011;50493;50.970;10.082;2023-08-31T03:15:07;5.05;;;3.17;;
64188;SDS011;50493;50.970;10.082;2023-08-31T03:17:33;6.03;;;3.45;;
64188;SDS011;50493;50.970;10.082;2023-08-31T03:19:58;4.53;;;2.97;;
64188;SDS011;50493;50.970;10.082;2023-08-31T03:22:24;6.00;;;3.08;;
64188;SDS011;50493;50.970;10.082;2023-08-31T03:24:51;4.63;;;2.85;;
64188;SDS011;50493;50.970;10.082;2023-08-31T03:27:16;5.30;;;3.47;;
64188;SDS011;50493;50.970;10.082;2023-08-31T03:29:41;6.57;;;3.40;;
64188;SDS011;50493;50.970;10.082;2023-08-31T03:32:07;7.75;;;3.15;;
64188;SDS011;50493;50.970;10.082;2023-08-31T03:34:33;5.13;;;3.42;;
64188;SDS011;50493;50.970;10.082;2023-08-31T03:36:58;5.72;;;3.55;;
64188;SDS011;50493;50.970;10.082;2023-08-31T03:39:24;5.25;;;3.33;;
64188;SDS011;50493;50.970;10.082;2023-08-31T03:41:51;4.47;;;2.90;;
64188;SDS011;50493;50.970;10.082;2023-08-31T03:44:16;5.55;;;3.78;;
64188;SDS011;50493;50.970;10.082;2023-08-31T03:46:42;5.60;;;3.55;;
64188;SDS011;50493;50.970;10.082;2023-08-31T03:49:07;6.65;;;3.40;;
64188;SDS011;50493;50.970;10.082;2023-08-31T03:51:32;4.88;;;3.25;;
64188;SDS011;50493;50.970;10.082;2023-08-31T03:53:58;4.82;;;3.47;;
64188;SDS011;50493;50.970;10.082;2023-08-31T03:56:23;4.68;;;3.08;;
64188;SDS011;50493;50.970;10.082;2023-08-31T03:58:50;7.45;;;4.05;;
64188;SDS011;50493;50.970;10.082;2023-08-31T04:01:15;5.15;;;3.40;;
64188;SDS011;50493;50.970;10.082;2023-08-31T04:03:41;6.45;;;4.32;;
64188;SDS011;50493;50.970;10.082;2023-08-31T04:06:07;4.40;;;3.20;;
64188;SDS011;50493;50.970;10.082;2023-08-31T04:08:32;5.60;;;3.40;;
64188;SDS011;50493;50.970;10.082;2023-08-31T04:10:58;4.95;;;3.53;;
64188;SDS011;50493;50.970;10.082;2023-08-31T04:13:23;4.53;;;3.05;;
64188;SDS011;50493;50.970;10.082;2023-08-31T04:15:51;4.85;;;2.90;;
64188;SDS011;50493;50.970;10.082;2023-08-31T04:18:17;4.70;;;3.22;;
64188;SDS011;50493;50.970;10.082;2023-08-31T04:20:48;4.97;;;3.13;;
64188;SDS011;50493;50.970;10.082;2023-08-31T04:23:15;6.82;;;3.38;;
64188;SDS011;50493;50.970;10.082;2023-08-31T04:25:41;4.95;;;3.28;;
64188;SDS011;50493;50.970;10.082;2023-08-31T04:28:07;5.00;;;3.47;;
64188;SDS011;50493;50.970;10.082;2023-08-31T04:30:32;5.55;;;3.25;;
64188;SDS011;50493;50.970;10.082;2023-08-31T04:32:59;5.63;;;3.50;;
64188;SDS011;50493;50.970;10.082;2023-08-31T04:35:24;5.90;;;3.28;;
64188;SDS011;50493;50.970;10.082;2023-08-31T04:37:50;4.82;;;3.13;;
64188;SDS011;50493;50.970;10.082;2023-08-31T04:40:15;4.95;;;3.17;;
64188;SDS011;50493;50.970;10.082;2023-08-31T04:42:41;5.45;;;3.55;;
64188;SDS011;50493;50.970;10.082;2023-08-31T04:45:07;6.47;;;3.88;;
64188;SDS011;50493;50.970;10.082;2023-08-31T04:47:33;5.38;;;3.30;;
64188;SDS011;50493;50.970;10.082;2023-08-31T04:50:00;5.45;;;3.28;;
64188;SDS011;50493;50.970;10.082;2023-08-31T04:52:25;7.28;;;3.47;;
64188;SDS011;50493;50.970;10.082;2023-08-31T04:54:51;5.80;;;4.10;;
64188;SDS011;50493;50.970;10.082;2023-08-31T04:57:16;6.40;;;3.83;;
64188;SDS011;50493;50.970;10.082;2023-08-31T04:59:41;5.28;;;3.40;;
64188;SDS011;50493;50.970;10.082;2023-08-31T05:02:07;5.28;;;3.45;;
64188;SDS011;50493;50.970;10.082;2023-08-31T05:04:32;5.20;;;3.72;;
64188;SDS011;50493;50.970;10.082;2023-08-31T05:06:59;5.70;;;3.50;;
64188;SDS011;50493;50.970;10.082;2023-08-31T05:09:24;6.75;;;3.85;;
64188;SDS011;50493;50.970;10.082;2023-08-31T05:11:50;6.03;;;3.60;;
64188;SDS011;50493;50.970;10.082;2023-08-31T05:14:15;6.32;;;4.35;;
64188;SDS011;50493;50.970;10.082;2023-08-31T05:16:41;5.82;;;4.00;;
64188;SDS011;50493;50.970;10.082;2023-08-31T05:19:06;5.88;;;3.63;;
64188;SDS011;50493;50.970;10.082;2023-08-31T05:21:32;6.72;;;3.60;;
64188;SDS011;50493;50.970;10.082;2023-08-31T05:23:59;7.00;;;3.92;;
64188;SDS011;50493;50.970;10.082;2023-08-31T05:26:24;6.28;;;4.05;;
64188;SDS011;50493;50.970;10.082;2023-08-31T05:28:50;9.68;;;5.50;;
64188;SDS011;50493;50.970;10.082;2023-08-31T05:31:15;5.35;;;3.75;;
64188;SDS011;50493;50.970;10.082;2023-08-31T05:33:40;6.50;;;4.20;;
64188;SDS011;50493;50.970;10.082;2023-08-31T05:36:06;5.80;;;3.75;;
64188;SDS011;50493;50.970;10.082;2023-08-31T05:38:31;6.88;;;4.60;;
64188;SDS011;50493;50.970;10.082;2023-08-31T05:41:06;6.97;;;3.88;;
64188;SDS011;50493;50.970;10.082;2023-08-31T05:43:32;5.28;;;3.78;;
64188;SDS011;50493;50.970;10.082;2023-08-31T05:45:59;5.50;;;3.70;;
64188;SDS011;50493;50.970;10.082;2023-08-31T05:48:24;5.13;;;3.40;;
64188;SDS011;50493;50.970;10.082;2023-08-31T05:50:50;5.85;;;3.65;;
64188;SDS011;50493;50.970;10.082;2023-08-31T05:53:15;7.40;;;3.78;;
64188;SDS011;50493;50.970;10.082;2023-08-31T05:55:40;6.38;;;3.50;;
64188;SDS011;50493;50.970;10.082;2023-08-31T05:58:08;11.13;;;6.93;;
64188;SDS011;50493;50.970;10.082;2023-08-31T06:00:33;14.48;;;8.93;;
64188;SDS011;50493;50.970;10.082;2023-08-31T06:03:00;9.80;;;6.28;;
64188;SDS011;50493;50.970;10.082;2023-08-31T06:05:26;14.48;;;8.30;;
64188;SDS011;50493;50.970;10.082;2023-08-31T06:07:53;18.70;;;10.05;;
64188;SDS011;50493;50.970;10.082;2023-08-31T06:10:18;16.23;;;10.75;;
64188;SDS011;50493;50.970;10.082;2023-08-31T06:12:44;14.25;;;8.00;;
64188;SDS011;50493;50.970;10.082;2023-08-31T06:15:11;10.05;;;5.75;;
64188;SDS011;50493;50.970;10.082;2023-08-31T06:17:36;16.40;;;10.40;;
64188;SDS011;50493;50.970;10.082;2023-08-31T06:20:02;15.32;;;8.20;;
64188;SDS011;50493;50.970;10.082;2023-08-31T06:22:30;10.48;;;6.15;;
64188;SDS011;50493;50.970;10.082;2023-08-31T06:24:55;7.85;;;4.90;;
64188;SDS011;50493;50.970;10.082;2023-08-31T06:27:21;14.27;;;7.93;;
64188;SDS011;50493;50.970;10.082;2023-08-31T06:29:46;10.95;;;6.60;;
64188;SDS011;50493;50.970;10.082;2023-08-31T06:32:13;8.95;;;5.53;;
64188;SDS011;50493;50.970;10.082;2023-08-31T06:34:38;19.75;;;10.07;;
64188;SDS011;50493;50.970;10.082;2023-08-31T06:37:04;14.65;;;9.48;;
64188;SDS011;50493;50.970;10.082;2023-08-31T06:39:30;10.75;;;6.55;;
64188;SDS011;50493;50.970;10.082;2023-08-31T06:41:55;10.43;;;6.78;;
64188;SDS011;50493;50.970;10.082;2023-08-31T06:44:21;13.20;;;8.38;;
64188;SDS011;50493;50.970;10.082;2023-08-31T06:46:46;13.85;;;7.93;;
64188;SDS011;50493;50.970;10.082;2023-08-31T06:49:13;12.75;;;7.95;;
64188;SDS011;50493;50.970;10.082;2023-08-31T06:51:40;5.68;;;3.67;;
64188;SDS011;50493;50.970;10.082;2023-08-31T06:54:05;7.72;;;4.82;;
64188;SDS011;50493;50.970;10.082;2023-08-31T06:56:31;10.15;;;6.50;;
64188;SDS011;50493;50.970;10.082;2023-08-31T06:58:57;8.20;;;5.43;;
64188;SDS011;50493;50.970;10.082;2023-08-31T07:01:23;6.05;;;4.22;;
64188;SDS011;50493;50.970;10.082;2023-08-31T07:03:48;8.80;;;6.15;;
64188;SDS011;50493;50.970;10.082;2023-08-31T07:06:15;8.75;;;5.90;;
64188;SDS011;50493;50.970;10.082;2023-08-31T07:08:40;9.63;;;5.78;;
64188;SDS011;50493;50.970;10.082;2023-08-31T07:11:07;5.13;;;3.58;;
64188;SDS011;50493;50.970;10.082;2023-08-31T07:13:32;7.72;;;4.97;;
64188;SDS011;50493;50.970;10.082;2023-08-31T07:15:57;10.25;;;5.85;;
64188;SDS011;50493;50.970;10.082;2023-08-31T07:18:23;9.60;;;5.50;;
64188;SDS011;50493;50.970;10.082;2023-08-31T07:20:48;10.05;;;5.15;;
64188;SDS011;50493;50.970;10.082;2023-08-31T07:23:15;5.65;;;3.58;;
64188;SDS011;50493;50.970;10.082;2023-08-31T07:25:41;5.78;;;3.65;;
64188;SDS011;50493;50.970;10.082;2023-08-31T07:28:07;7.18;;;4.45;;
64188;SDS011;50493;50.970;10.082;2023-08-31T07:30:33;8.63;;;4.93;;
64188;SDS011;50493;50.970;10.082;2023-08-31T07:32:58;5.43;;;3.60;;
64188;SDS011;50493;50.970;10.082;2023-08-31T07:35:27;7.38;;;4.10;;
64188;SDS011;50493;50.970;10.082;2023-08-31T07:37:53;4.70;;;3.38;;
64188;SDS011;50493;50.970;10.082;2023-08-31T07:40:19;5.25;;;3.25;;
64188;SDS011;50493;50.970;10.082;2023-08-31T07:42:45;6.20;;;3.88;;
64188;SDS011;50493;50.970;10.082;2023-08-31T07:45:10;5.97;;;3.65;;
64188;SDS011;50493;50.970;10.082;2023-08-31T07:47:36;5.63;;;3.10;;
64188;SDS011;50493;50.970;10.082;2023-08-31T07:50:01;5.57;;;3.45;;
64188;SDS011;50493;50.970;10.082;2023-08-31T07:52:27;5.65;;;3.30;;
64188;SDS011;50493;50.970;10.082;2023-08-31T07:54:52;5.47;;;3.17;;
64188;SDS011;50493;50.970;10.082;2023-08-31T07:57:20;7.07;;;3.92;;
64188;SDS011;50493;50.970;10.082;2023-08-31T07:59:45;5.35;;;2.97;;
64188;SDS011;50493;50.970;10.082;2023-08-31T08:02:11;4.70;;;2.90;;
64188;SDS011;50493;50.970;10.082;2023-08-31T08:04:36;7.25;;;3.78;;
64188;SDS011;50493;50.970;10.082;2023-08-31T08:07:01;4.22;;;2.80;;
64188;SDS011;50493;50.970;10.082;2023-08-31T08:09:28;5.70;;;3.13;;
64188;SDS011;50493;50.970;10.082;2023-08-31T08:11:54;5.15;;;3.20;;
64188;SDS011;50493;50.970;10.082;2023-08-31T08:14:21;4.13;;;2.60;;
64188;SDS011;50493;50.970;10.082;2023-08-31T08:16:47;4.45;;;2.95;;
64188;SDS011;50493;50.970;10.082;2023-08-31T08:19:12;5.63;;;3.10;;
64188;SDS011;50493;50.970;10.082;2023-08-31T08:21:37;4.20;;;3.03;;
64188;SDS011;50493;50.970;10.082;2023-08-31T08:24:03;4.95;;;2.90;;
64188;SDS011;50493;50.970;10.082;2023-08-31T08:26:29;5.57;;;2.92;;
64188;SDS011;50493;50.970;10.082;2023-08-31T08:28:54;3.85;;;2.78;;
64188;SDS011;50493;50.970;10.082;2023-08-31T08:31:21;3.63;;;2.63;;
64188;SDS011;50493;50.970;10.082;2023-08-31T08:33:46;4.70;;;2.70;;
64188;SDS011;50493;50.970;10.082;2023-08-31T08:36:11;5.00;;;2.90;;
64188;SDS011;50493;50.970;10.082;2023-08-31T08:38:37;4.80;;;3.10;;
64188;SDS011;50493;50.970;10.082;2023-08-31T08:41:06;3.88;;;2.55;;
64188;SDS011;50493;50.970;10.082;2023-08-31T08:43:32;4.80;;;2.60;;
64188;SDS011;50493;50.970;10.082;2023-08-31T08:46:00;5.65;;;3.13;;
64188;SDS011;50493;50.970;10.082;2023-08-31T08:48:31;5.55;;;2.70;;
64188;SDS011;50493;50.970;10.082;2023-08-31T08:50:58;5.13;;;2.70;;
64188;SDS011;50493;50.970;10.082;2023-08-31T08:53:24;4.38;;;2.80;;
64188;SDS011;50493;50.970;10.082;2023-08-31T08:55:49;4.43;;;2.38;;
64188;SDS011;50493;50.970;10.082;2023-08-31T08:58:15;5.72;;;2.65;;
64188;SDS011;50493;50.970;10.082;2023-08-31T09:00:40;4.88;;;2.80;;
64188;SDS011;50493;50.970;10.082;2023-08-31T09:03:07;4.05;;;2.60;;
64188;SDS011;50493;50.970;10.082;2023-08-31T09:05:34;4.40;;;2.30;;
64188;SDS011;50493;50.970;10.082;2023-08-31T09:08:00;5.00;;;2.80;;
64188;SDS011;50493;50.970;10.082;2023-08-31T09:10:30;4.90;;;2.88;;
64188;SDS011;50493;50.970;10.082;2023-08-31T09:12:58;4.60;;;2.58;;
64188;SDS011;50493;50.970;10.082;2023-08-31T09:15:24;4.53;;;2.40;;
64188;SDS011;50493;50.970;10.082;2023-08-31T09:17:51;3.95;;;2.33;;
64188;SDS011;50493;50.970;10.082;2023-08-31T09:20:16;4.32;;;2.25;;
64188;SDS011;50493;50.970;10.082;2023-08-31T09:22:43;4.85;;;2.63;;
64188;SDS011;50493;50.970;10.082;2023-08-31T09:25:13;5.18;;;2.53;;
64188;SDS011;50493;50.970;10.082;2023-08-31T09:27:39;3.53;;;2.38;;
64188;SDS011;50493;50.970;10.082;2023-08-31T09:30:05;3.70;;;2.50;;
64188;SDS011;50493;50.970;10.082;2023-08-31T09:32:32;4.10;;;2.70;;
64188;SDS011;50493;50.970;10.082;2023-08-31T09:34:58;3.90;;;2.53;;
64188;SDS011;50493;50.970;10.082;2023-08-31T09:37:27;3.85;;;2.40;;
64188;SDS011;50493;50.970;10.082;2023-08-31T09:39:54;3.70;;;2.45;;
64188;SDS011;50493;50.970;10.082;2023-08-31T09:42:20;6.13;;;2.30;;
64188;SDS011;50493;50.970;10.082;2023-08-31T09:44:45;3.72;;;2.45;;
64188;SDS011;50493;50.970;10.082;2023-08-31T09:47:14;4.13;;;2.17;;
64188;SDS011;50493;50.970;10.082;2023-08-31T09:49:40;3.40;;;2.20;;
64188;SDS011;50493;50.970;10.082;2023-08-31T09:52:08;4.65;;;2.30;;
64188;SDS011;50493;50.970;10.082;2023-08-31T09:54:34;4.13;;;2.33;;
64188;SDS011;50493;50.970;10.082;2023-08-31T09:57:02;3.65;;;2.15;;
64188;SDS011;50493;50.970;10.082;2023-08-31T09:59:28;3.30;;;2.30;;
64188;SDS011;50493;50.970;10.082;2023-08-31T10:01:54;4.95;;;2.47;;
64188;SDS011;50493;50.970;10.082;2023-08-31T10:04:23;5.93;;;2.50;;
64188;SDS011;50493;50.970;10.082;2023-08-31T10:06:49;3.33;;;2.15;;
64188;SDS011;50493;50.970;10.082;2023-08-31T10:09:16;3.20;;;2.05;;
64188;SDS011;50493;50.970;10.082;2023-08-31T10:11:41;3.50;;;2.40;;
64188;SDS011;50493;50.970;10.082;2023-08-31T10:14:11;4.00;;;2.70;;
64188;SDS011;50493;50.970;10.082;2023-08-31T10:16:39;4.45;;;2.40;;
64188;SDS011;50493;50.970;10.082;2023-08-31T10:19:05;3.65;;;2.30;;
64188;SDS011;50493;50.970;10.082;2023-08-31T10:21:31;3.70;;;2.38;;
64188;SDS011;50493;50.970;10.082;2023-08-31T10:23:57;4.60;;;2.40;;
64188;SDS011;50493;50.970;10.082;2023-08-31T10:26:23;3.47;;;2.30;;
64188;SDS011;50493;50.970;10.082;2023-08-31T10:28:50;3.00;;;2.30;;
64188;SDS011;50493;50.970;10.082;2023-08-31T10:31:18;5.80;;;2.40;;
64188;SDS011;50493;50.970;10.082;2023-08-31T10:33:44;4.72;;;2.45;;
64188;SDS011;50493;50.970;10.082;2023-08-31T10:36:12;4.15;;;2.33;;
64188;SDS011;50493;50.970;10.082;2023-08-31T10:38:38;3.60;;;1.80;;
64188;SDS011;50493;50.970;10.082;2023-08-31T10:41:20;3.88;;;2.65;;
64188;SDS011;50493;50.970;10.082;2023-08-31T10:43:47;2.85;;;2.25;;
64188;SDS011;50493;50.970;10.082;2023-08-31T10:46:15;4.13;;;2.25;;
64188;SDS011;50493;50.970;10.082;2023-08-31T10:48:49;3.58;;;2.17;;
64188;SDS011;50493;50.970;10.082;2023-08-31T10:51:15;3.45;;;2.15;;
64188;SDS011;50493;50.970;10.082;2023-08-31T10:53:41;3.22;;;1.98;;
64188;SDS011;50493;50.970;10.082;2023-08-31T10:56:06;3.53;;;1.80;;
64188;SDS011;50493;50.970;10.082;2023-08-31T10:58:32;3.42;;;2.03;;
64188;SDS011;50493;50.970;10.082;2023-08-31T11:00:58;4.13;;;2.22;;
64188;SDS011;50493;50.970;10.082;2023-08-31T11:03:25;3.03;;;2.00;;
64188;SDS011;50493;50.970;10.082;2023-08-31T11:05:50;3.38;;;2.00;;
64188;SDS011;50493;50.970;10.082;2023-08-31T11:08:20;3.75;;;2.10;;
64188;SDS011;50493;50.970;10.082;2023-08-31T11:10:46;2.30;;;1.83;;
64188;SDS011;50493;50.970;10.082;2023-08-31T11:13:15;3.05;;;2.10;;
64188;SDS011;50493;50.970;10.082;2023-08-31T11:15:44;2.63;;;1.85;;
64188;SDS011;50493;50.970;10.082;2023-08-31T11:18:11;3.08;;;1.83;;
64188;SDS011;50493;50.970;10.082;2023-08-31T11:20:38;2.75;;;1.80;;
64188;SDS011;50493;50.970;10.082;2023-08-31T11:23:03;3.45;;;2.20;;
64188;SDS011;50493;50.970;10.082;2023-08-31T11:25:30;3.33;;;1.70;;
64188;SDS011;50493;50.970;10.082;2023-08-31T11:27:56;2.05;;;1.67;;
64188;SDS011;50493;50.970;10.082;2023-08-31T11:30:22;2.92;;;1.88;;
64188;SDS011;50493;50.970;10.082;2023-08-31T11:32:50;3.13;;;1.80;;
64188;SDS011;50493;50.970;10.082;2023-08-31T11:35:16;4.00;;;1.90;;
64188;SDS011;50493;50.970;10.082;2023-08-31T11:37:44;3.17;;;1.85;;
64188;SDS011;50493;50.970;10.082;2023-08-31T11:40:10;3.22;;;1.98;;
64188;SDS011;50493;50.970;10.082;2023-08-31T11:42:39;4.30;;;2.03;;
64188;SDS011;50493;50.970;10.082;2023-08-31T11:45:05;3.28;;;1.70;;
64188;SDS011;50493;50.970;10.082;2023-08-31T11:47:32;3.55;;;1.92;;
64188;SDS011;50493;50.970;10.082;2023-08-31T11:49:58;2.95;;;1.73;;
64188;SDS011;50493;50.970;10.082;2023-08-31T11:52:24;2.97;;;1.73;;
64188;SDS011;50493;50.970;10.082;2023-08-31T11:54:53;3.05;;;1.67;;
64188;SDS011;50493;50.970;10.082;2023-08-31T11:57:19;4.18;;;1.83;;
64188;SDS011;50493;50.970;10.082;2023-08-31T11:59:44;3.63;;;1.60;;
64188;SDS011;50493;50.970;10.082;2023-08-31T12:02:10;3.15;;;1.90;;
64188;SDS011;50493;50.970;10.082;2023-08-31T12:04:41;2.20;;;1.50;;
64188;SDS011;50493;50.970;10.082;2023-08-31T12:07:08;3.20;;;1.65;;
64188;SDS011;50493;50.970;10.082;2023-08-31T12:09:33;3.65;;;1.80;;
64188;SDS011;50493;50.970;10.082;2023-08-31T12:12:00;3.05;;;1.80;;
64188;SDS011;50493;50.970;10.082;2023-08-31T12:14:26;3.25;;;1.95;;
64188;SDS011;50493;50.970;10.082;2023-08-31T12:16:53;3.20;;;1.60;;
64188;SDS011;50493;50.970;10.082;2023-08-31T12:19:26;3.30;;;1.80;;
64188;SDS011;50493;50.970;10.082;2023-08-31T12:21:52;3.10;;;1.80;;
64188;SDS011;50493;50.970;10.082;2023-08-31T12:24:17;2.80;;;1.60;;
64188;SDS011;50493;50.970;10.082;2023-08-31T12:26:44;4.70;;;1.80;;
64188;SDS011;50493;50.970;10.082;2023-08-31T12:29:11;2.92;;;1.92;;
64188;SDS011;50493;50.970;10.082;2023-08-31T12:31:36;3.03;;;1.70;;
64188;SDS011;50493;50.970;10.082;2023-08-31T12:34:02;2.60;;;1.73;;
64188;SDS011;50493;50.970;10.082;2023-08-31T12:36:31;3.58;;;1.80;;
64188;SDS011;50493;50.970;10.082;2023-08-31T12:38:56;3.17;;;1.65;;
64188;SDS011;50493;50.970;10.082;2023-08-31T12:41:23;1.80;;;1.42;;
64188;SDS011;50493;50.970;10.082;2023-08-31T12:43:49;4.22;;;1.70;;
64188;SDS011;50493;50.970;10.082;2023-08-31T12:46:16;3.22;;;1.70;;
64188;SDS011;50493;50.970;10.082;2023-08-31T12:48:42;2.65;;;1.73;;
64188;SDS011;50493;50.970;10.082;2023-08-31T12:51:07;4.20;;;1.50;;
64188;SDS011;50493;50.970;10.082;2023-08-31T12:53:36;3.72;;;1.85;;
64188;SDS011;50493;50.970;10.082;2023-08-31T12:56:03;3.33;;;1.60;;
64188;SDS011;50493;50.970;10.082;2023-08-31T12:58:28;3.38;;;1.58;;
64188;SDS011;50493;50.970;10.082;2023-08-31T13:00:54;2.65;;;1.48;;
64188;SDS011;50493;50.970;10.082;2023-08-31T13:03:24;3.33;;;1.48;;
64188;SDS011;50493;50.970;10.082;2023-08-31T13:05:49;2.70;;;1.67;;
64188;SDS011;50493;50.970;10.082;2023-08-31T13:08:15;2.38;;;1.50;;
64188;SDS011;50493;50.970;10.082;2023-08-31T13:10:41;1.95;;;1.40;;
64188;SDS011;50493;50.970;10.082;2023-08-31T13:13:07;2.50;;;1.60;;
64188;SDS011;50493;50.970;10.082;2023-08-31T13:15:32;3.15;;;1.50;;
64188;SDS011;50493;50.970;10.082;2023-08-31T13:17:58;3.13;;;1.58;;
64188;SDS011;50493;50.970;10.082;2023-08-31T13:20:25;3.75;;;1.80;;
64188;SDS011;50493;50.970;10.082;2023-08-31T13:22:51;3.28;;;1.40;;
64188;SDS011;50493;50.970;10.082;2023-08-31T13:25:16;2.70;;;1.65;;
64188;SDS011;50493;50.970;10.082;2023-08-31T13:27:42;3.15;;;1.58;;
64188;SDS011;50493;50.970;10.082;2023-08-31T13:30:08;4.22;;;1.40;;
64188;SDS011;50493;50.970;10.082;2023-08-31T13:32:34;2.78;;;1.60;;
64188;SDS011;50493;50.970;10.082;2023-08-31T13:35:00;4.90;;;1.67;;
64188;SDS011;50493;50.970;10.082;2023-08-31T13:37:27;2.85;;;1.60;;
64188;SDS011;50493;50.970;10.082;2023-08-31T13:39:52;2.63;;;1.80;;
64188;SDS011;50493;50.970;10.082;2023-08-31T13:42:20;2.55;;;1.55;;
64188;SDS011;50493;50.970;10.082;2023-08-31T13:44:46;2.80;;;1.48;;
64188;SDS011;50493;50.970;10.082;2023-08-31T13:47:11;2.38;;;1.48;;
64188;SDS011;50493;50.970;10.082;2023-08-31T13:49:36;2.28;;;1.60;;
64188;SDS011;50493;50.970;10.082;2023-08-31T13:52:02;3.53;;;1.65;;
64188;SDS011;50493;50.970;10.082;2023-08-31T13:54:33;2.25;;;1.45;;
64188;SDS011;50493;50.970;10.082;2023-08-31T13:56:58;2.75;;;1.40;;
64188;SDS011;50493;50.970;10.082;2023-08-31T13:59:24;3.50;;;1.40;;
64188;SDS011;50493;50.970;10.082;2023-08-31T14:01:52;3.40;;;1.63;;
64188;SDS011;50493;50.970;10.082;2023-08-31T14:04:18;3.35;;;1.30;;
64188;SDS011;50493;50.970;10.082;2023-08-31T14:06:43;3.05;;;1.42;;
64188;SDS011;50493;50.970;10.082;2023-08-31T14:09:09;2.45;;;1.30;;
64188;SDS011;50493;50.970;10.082;2023-08-31T14:11:36;2.03;;;1.50;;
64188;SDS011;50493;50.970;10.082;2023-08-31T14:14:02;2.22;;;1.45;;
64188;SDS011;50493;50.970;10.082;2023-08-31T14:16:34;3.08;;;1.60;;
64188;SDS011;50493;50.970;10.082;2023-08-31T14:19:01;2.80;;;1.40;;
64188;SDS011;50493;50.970;10.082;2023-08-31T14:21:27;2.60;;;1.50;;
64188;SDS011;50493;50.970;10.082;2023-08-31T14:23:52;3.35;;;1.27;;
64188;SDS011;50493;50.970;10.082;2023-08-31T14:26:20;2.85;;;1.63;;
64188;SDS011;50493;50.970;10.082;2023-08-31T14:28:48;1.90;;;1.45;;